sensor_id;sensor_type;location;lat;lon;timestamp;P1;durP1;ratioP1;P2;durP2;ratioP2
27642;SDS011;15053;48.618;10.024;2024-03-02T00:01:23;82.90;;;28.17;;
27642;SDS011;15053;48.618;10.024;2024-03-02T00:03:50;73.95;;;28.98;;
27642;SDS011;15053;48.618;10.024;2024-03-02T00:06:20;76.85;;;29.65;;
27642;SDS011;15053;48.618;10.024;2024-03-02T00:08:50;77.35;;;30.08;;
27642;SDS011;15053;48.618;10.024;2024-03-02T00:11:18;127.00;;;32.00;;
27642;SDS011;15053;48.618;10.024;2024-03-02T00:13:45;75.25;;;29.83;;
27642;SDS011;15053;48.618;10.024;2024-03-02T00:16:12;65.40;;;28.67;;
27642;SDS011;15053;48.618;10.024;2024-03-02T00:18:39;58.88;;;28.30;;
27642;SDS011;15053;48.618;10.024;2024-03-02T00:21:05;62.92;;;27.92;;
27642;SDS011;15053;48.618;10.024;2024-03-02T00:23:35;67.25;;;28.25;;
27642;SDS011;15053;48.618;10.024;2024-03-02T00:26:02;58.92;;;28.80;;
27642;SDS011;15053;48.618;10.024;2024-03-02T00:28:36;59.83;;;28.00;;
27642;SDS011;15053;48.618;10.024;2024-03-02T00:31:09;54.20;;;26.33;;
27642;SDS011;15053;48.618;10.024;2024-03-02T00:33:47;53.70;;;26.52;;
27642;SDS011;15053;48.618;10.024;2024-03-02T00:36:15;61.15;;;27.58;;
27642;SDS011;15053;48.618;10.024;2024-03-02T00:38:48;61.63;;;28.65;;
27642;SDS011;15053;48.618;10.024;2024-03-02T00:41:22;59.80;;;27.95;;
27642;SDS011;15053;48.618;10.024;2024-03-02T00:46:24;59.60;;;28.40;;
27642;SDS011;15053;48.618;10.024;2024-03-02T00:48:52;56.95;;;27.67;;
27642;SDS011;15053;48.618;10.024;2024-03-02T00:51:24;66.97;;;29.13;;
27642;SDS011;15053;48.618;10.024;2024-03-02T00:56:21;62.22;;;29.20;;
27642;SDS011;15053;48.618;10.024;2024-03-02T00:58:49;65.15;;;28.40;;
27642;SDS011;15053;48.618;10.024;2024-03-02T01:01:16;67.32;;;28.40;;
27642;SDS011;15053;48.618;10.024;2024-03-02T01:03:43;62.88;;;28.67;;
27642;SDS011;15053;48.618;10.024;2024-03-02T01:06:10;65.10;;;29.67;;
27642;SDS011;15053;48.618;10.024;2024-03-02T01:08:36;61.85;;;27.90;;
27642;SDS011;15053;48.618;10.024;2024-03-02T01:11:04;64.05;;;27.73;;
27642;SDS011;15053;48.618;10.024;2024-03-02T01:13:31;62.03;;;29.10;;
27642;SDS011;15053;48.618;10.024;2024-03-02T01:15:58;69.18;;;30.17;;
27642;SDS011;15053;48.618;10.024;2024-03-02T01:18:25;68.95;;;30.23;;
27642;SDS011;15053;48.618;10.024;2024-03-02T01:20:52;61.35;;;28.90;;
27642;SDS011;15053;48.618;10.024;2024-03-02T01:23:19;69.63;;;31.70;;
27642;SDS011;15053;48.618;10.024;2024-03-02T01:25:46;70.45;;;29.75;;
27642;SDS011;15053;48.618;10.024;2024-03-02T01:28:14;67.85;;;30.75;;
27642;SDS011;15053;48.618;10.024;2024-03-02T01:30:41;65.80;;;31.20;;
27642;SDS011;15053;48.618;10.024;2024-03-02T01:33:07;98.63;;;34.08;;
27642;SDS011;15053;48.618;10.024;2024-03-02T01:35:34;75.10;;;31.38;;
27642;SDS011;15053;48.618;10.024;2024-03-02T01:38:04;75.65;;;31.38;;
27642;SDS011;15053;48.618;10.024;2024-03-02T01:40:34;78.22;;;32.05;;
27642;SDS011;15053;48.618;10.024;2024-03-02T01:43:00;73.25;;;30.48;;
27642;SDS011;15053;48.618;10.024;2024-03-02T01:45:28;74.70;;;32.08;;
27642;SDS011;15053;48.618;10.024;2024-03-02T01:47:55;68.75;;;30.13;;
27642;SDS011;15053;48.618;10.024;2024-03-02T01:50:29;66.78;;;30.60;;
27642;SDS011;15053;48.618;10.024;2024-03-02T01:52:57;75.38;;;30.10;;
27642;SDS011;15053;48.618;10.024;2024-03-02T01:55:25;68.75;;;31.33;;
27642;SDS011;15053;48.618;10.024;2024-03-02T01:57:52;75.15;;;32.00;;
27642;SDS011;15053;48.618;10.024;2024-03-02T02:00:19;70.78;;;30.58;;
27642;SDS011;15053;48.618;10.024;2024-03-02T02:02:46;66.78;;;30.17;;
27642;SDS011;15053;48.618;10.024;2024-03-02T02:05:14;76.07;;;30.48;;
27642;SDS011;15053;48.618;10.024;2024-03-02T02:07:41;68.65;;;29.98;;
27642;SDS011;15053;48.618;10.024;2024-03-02T02:10:09;62.15;;;29.35;;
27642;SDS011;15053;48.618;10.024;2024-03-02T02:12:36;64.72;;;30.05;;
27642;SDS011;15053;48.618;10.024;2024-03-02T02:15:25;71.30;;;31.25;;
27642;SDS011;15053;48.618;10.024;2024-03-02T02:17:55;71.30;;;30.92;;
27642;SDS011;15053;48.618;10.024;2024-03-02T02:20:22;59.75;;;29.23;;
27642;SDS011;15053;48.618;10.024;2024-03-02T02:22:54;66.13;;;29.67;;
27642;SDS011;15053;48.618;10.024;2024-03-02T02:25:25;58.88;;;26.90;;
27642;SDS011;15053;48.618;10.024;2024-03-02T02:27:52;62.20;;;28.65;;
27642;SDS011;15053;48.618;10.024;2024-03-02T02:30:20;59.05;;;27.75;;
27642;SDS011;15053;48.618;10.024;2024-03-02T02:32:48;58.45;;;28.90;;
27642;SDS011;15053;48.618;10.024;2024-03-02T02:35:15;60.63;;;29.38;;
27642;SDS011;15053;48.618;10.024;2024-03-02T02:37:42;61.85;;;28.77;;
27642;SDS011;15053;48.618;10.024;2024-03-02T02:40:09;67.57;;;30.35;;
27642;SDS011;15053;48.618;10.024;2024-03-02T02:42:37;61.08;;;28.75;;
27642;SDS011;15053;48.618;10.024;2024-03-02T02:45:03;65.32;;;30.35;;
27642;SDS011;15053;48.618;10.024;2024-03-02T02:47:30;58.60;;;28.23;;
27642;SDS011;15053;48.618;10.024;2024-03-02T02:49:57;62.47;;;27.75;;
27642;SDS011;15053;48.618;10.024;2024-03-02T02:52:23;63.83;;;29.77;;
27642;SDS011;15053;48.618;10.024;2024-03-02T02:54:50;64.07;;;30.77;;
27642;SDS011;15053;48.618;10.024;2024-03-02T02:57:17;66.35;;;29.48;;
27642;SDS011;15053;48.618;10.024;2024-03-02T02:59:44;58.80;;;28.63;;
27642;SDS011;15053;48.618;10.024;2024-03-02T03:02:10;61.08;;;27.33;;
27642;SDS011;15053;48.618;10.024;2024-03-02T03:04:37;61.20;;;28.25;;
27642;SDS011;15053;48.618;10.024;2024-03-02T03:07:06;59.85;;;29.88;;
27642;SDS011;15053;48.618;10.024;2024-03-02T03:09:32;65.35;;;28.38;;
27642;SDS011;15053;48.618;10.024;2024-03-02T03:11:59;57.85;;;28.65;;
27642;SDS011;15053;48.618;10.024;2024-03-02T03:14:25;73.68;;;29.88;;
27642;SDS011;15053;48.618;10.024;2024-03-02T03:16:52;90.63;;;30.98;;
27642;SDS011;15053;48.618;10.024;2024-03-02T03:19:18;63.97;;;32.30;;
27642;SDS011;15053;48.618;10.024;2024-03-02T03:21:45;227.05;;;40.35;;
27642;SDS011;15053;48.618;10.024;2024-03-02T03:24:11;103.45;;;31.85;;
27642;SDS011;15053;48.618;10.024;2024-03-02T03:26:38;77.25;;;28.15;;
27642;SDS011;15053;48.618;10.024;2024-03-02T03:29:04;121.13;;;32.67;;
27642;SDS011;15053;48.618;10.024;2024-03-02T03:31:31;76.32;;;29.88;;
27642;SDS011;15053;48.618;10.024;2024-03-02T03:33:57;69.43;;;28.73;;
27642;SDS011;15053;48.618;10.024;2024-03-02T03:36:24;62.08;;;28.58;;
27642;SDS011;15053;48.618;10.024;2024-03-02T03:38:51;65.57;;;28.23;;
27642;SDS011;15053;48.618;10.024;2024-03-02T03:41:17;57.97;;;27.00;;
27642;SDS011;15053;48.618;10.024;2024-03-02T03:43:44;63.65;;;25.70;;
27642;SDS011;15053;48.618;10.024;2024-03-02T03:46:10;60.22;;;27.75;;
27642;SDS011;15053;48.618;10.024;2024-03-02T03:48:37;56.80;;;26.65;;
27642;SDS011;15053;48.618;10.024;2024-03-02T03:51:03;56.92;;;25.83;;
27642;SDS011;15053;48.618;10.024;2024-03-02T03:53:30;69.38;;;27.17;;
27642;SDS011;15053;48.618;10.024;2024-03-02T03:55:57;124.13;;;28.63;;
27642;SDS011;15053;48.618;10.024;2024-03-02T03:58:23;121.75;;;28.35;;
27642;SDS011;15053;48.618;10.024;2024-03-02T04:00:50;188.70;;;33.80;;
27642;SDS011;15053;48.618;10.024;2024-03-02T04:03:17;239.65;;;34.72;;
27642;SDS011;15053;48.618;10.024;2024-03-02T04:05:43;304.25;;;38.80;;
27642;SDS011;15053;48.618;10.024;2024-03-02T04:08:10;173.07;;;30.60;;
27642;SDS011;15053;48.618;10.024;2024-03-02T04:10:37;116.65;;;26.80;;
27642;SDS011;15053;48.618;10.024;2024-03-02T04:13:04;141.25;;;29.92;;
27642;SDS011;15053;48.618;10.024;2024-03-02T04:15:30;126.00;;;30.33;;
27642;SDS011;15053;48.618;10.024;2024-03-02T04:17:57;276.67;;;35.42;;
27642;SDS011;15053;48.618;10.024;2024-03-02T04:20:23;149.35;;;30.70;;
27642;SDS011;15053;48.618;10.024;2024-03-02T04:22:50;164.35;;;33.13;;
27642;SDS011;15053;48.618;10.024;2024-03-02T04:25:16;136.60;;;30.38;;
27642;SDS011;15053;48.618;10.024;2024-03-02T04:27:43;177.88;;;34.33;;
27642;SDS011;15053;48.618;10.024;2024-03-02T04:30:09;88.72;;;26.80;;
27642;SDS011;15053;48.618;10.024;2024-03-02T04:32:36;168.63;;;29.37;;
27642;SDS011;15053;48.618;10.024;2024-03-02T04:35:03;72.85;;;25.65;;
27642;SDS011;15053;48.618;10.024;2024-03-02T04:37:30;103.90;;;26.17;;
27642;SDS011;15053;48.618;10.024;2024-03-02T04:39:58;85.95;;;25.60;;
27642;SDS011;15053;48.618;10.024;2024-03-02T04:42:24;128.75;;;27.08;;
27642;SDS011;15053;48.618;10.024;2024-03-02T04:44:51;103.68;;;25.58;;
27642;SDS011;15053;48.618;10.024;2024-03-02T04:47:17;68.93;;;25.77;;
27642;SDS011;15053;48.618;10.024;2024-03-02T04:49:44;67.88;;;24.83;;
27642;SDS011;15053;48.618;10.024;2024-03-02T04:52:11;49.60;;;22.70;;
27642;SDS011;15053;48.618;10.024;2024-03-02T04:54:37;145.40;;;31.40;;
27642;SDS011;15053;48.618;10.024;2024-03-02T04:57:24;45.60;;;23.60;;
27642;SDS011;15053;48.618;10.024;2024-03-02T04:59:50;69.53;;;23.08;;
27642;SDS011;15053;48.618;10.024;2024-03-02T05:02:17;51.20;;;23.65;;
27642;SDS011;15053;48.618;10.024;2024-03-02T05:04:43;79.85;;;23.00;;
27642;SDS011;15053;48.618;10.024;2024-03-02T05:07:10;72.47;;;24.45;;
27642;SDS011;15053;48.618;10.024;2024-03-02T05:09:37;73.82;;;24.38;;
27642;SDS011;15053;48.618;10.024;2024-03-02T05:12:03;60.78;;;23.33;;
27642;SDS011;15053;48.618;10.024;2024-03-02T05:14:48;62.95;;;23.80;;
27642;SDS011;15053;48.618;10.024;2024-03-02T05:17:15;172.07;;;29.48;;
27642;SDS011;15053;48.618;10.024;2024-03-02T05:19:41;112.40;;;25.75;;
27642;SDS011;15053;48.618;10.024;2024-03-02T05:22:08;168.85;;;29.23;;
27642;SDS011;15053;48.618;10.024;2024-03-02T05:24:34;77.97;;;25.02;;
27642;SDS011;15053;48.618;10.024;2024-03-02T05:27:01;121.95;;;25.67;;
27642;SDS011;15053;48.618;10.024;2024-03-02T05:29:27;70.88;;;23.08;;
27642;SDS011;15053;48.618;10.024;2024-03-02T05:31:54;69.70;;;21.92;;
27642;SDS011;15053;48.618;10.024;2024-03-02T05:34:20;58.80;;;22.17;;
27642;SDS011;15053;48.618;10.024;2024-03-02T05:36:47;94.90;;;23.88;;
27642;SDS011;15053;48.618;10.024;2024-03-02T05:39:13;67.50;;;21.88;;
27642;SDS011;15053;48.618;10.024;2024-03-02T05:41:40;145.07;;;24.73;;
27642;SDS011;15053;48.618;10.024;2024-03-02T05:44:07;90.80;;;22.98;;
27642;SDS011;15053;48.618;10.024;2024-03-02T05:46:33;131.15;;;24.45;;
27642;SDS011;15053;48.618;10.024;2024-03-02T05:49:01;159.32;;;25.50;;
27642;SDS011;15053;48.618;10.024;2024-03-02T05:51:28;41.95;;;20.33;;
27642;SDS011;15053;48.618;10.024;2024-03-02T05:53:54;69.40;;;21.98;;
27642;SDS011;15053;48.618;10.024;2024-03-02T05:56:21;83.32;;;22.83;;
27642;SDS011;15053;48.618;10.024;2024-03-02T05:58:47;97.03;;;22.63;;
27642;SDS011;15053;48.618;10.024;2024-03-02T06:01:26;74.93;;;22.13;;
27642;SDS011;15053;48.618;10.024;2024-03-02T06:03:55;58.03;;;22.92;;
27642;SDS011;15053;48.618;10.024;2024-03-02T06:06:22;69.57;;;22.40;;
27642;SDS011;15053;48.618;10.024;2024-03-02T06:08:49;163.77;;;24.75;;
27642;SDS011;15053;48.618;10.024;2024-03-02T06:11:16;107.18;;;24.67;;
27642;SDS011;15053;48.618;10.024;2024-03-02T06:13:43;102.43;;;24.45;;
27642;SDS011;15053;48.618;10.024;2024-03-02T06:16:10;66.75;;;21.48;;
27642;SDS011;15053;48.618;10.024;2024-03-02T06:18:36;142.57;;;25.17;;
27642;SDS011;15053;48.618;10.024;2024-03-02T06:21:03;118.85;;;25.52;;
27642;SDS011;15053;48.618;10.024;2024-03-02T06:23:30;60.00;;;23.88;;
27642;SDS011;15053;48.618;10.024;2024-03-02T06:25:56;143.82;;;27.67;;
27642;SDS011;15053;48.618;10.024;2024-03-02T06:28:23;128.68;;;25.10;;
27642;SDS011;15053;48.618;10.024;2024-03-02T06:30:49;109.95;;;26.77;;
27642;SDS011;15053;48.618;10.024;2024-03-02T06:33:16;213.40;;;33.38;;
27642;SDS011;15053;48.618;10.024;2024-03-02T06:35:43;136.75;;;27.98;;
27642;SDS011;15053;48.618;10.024;2024-03-02T06:38:09;87.03;;;26.05;;
27642;SDS011;15053;48.618;10.024;2024-03-02T06:40:36;100.47;;;25.55;;
27642;SDS011;15053;48.618;10.024;2024-03-02T06:43:04;228.15;;;31.08;;
27642;SDS011;15053;48.618;10.024;2024-03-02T06:45:31;248.05;;;34.60;;
27642;SDS011;15053;48.618;10.024;2024-03-02T06:47:58;164.85;;;29.00;;
27642;SDS011;15053;48.618;10.024;2024-03-02T06:50:24;137.68;;;28.83;;
27642;SDS011;15053;48.618;10.024;2024-03-02T06:52:51;117.28;;;27.45;;
27642;SDS011;15053;48.618;10.024;2024-03-02T06:55:18;72.40;;;26.05;;
27642;SDS011;15053;48.618;10.024;2024-03-02T06:57:44;200.25;;;32.58;;
27642;SDS011;15053;48.618;10.024;2024-03-02T07:00:11;158.93;;;29.80;;
27642;SDS011;15053;48.618;10.024;2024-03-02T07:02:38;250.82;;;34.53;;
27642;SDS011;15053;48.618;10.024;2024-03-02T07:05:07;145.40;;;28.58;;
27642;SDS011;15053;48.618;10.024;2024-03-02T07:07:35;157.88;;;30.25;;
27642;SDS011;15053;48.618;10.024;2024-03-02T07:10:01;188.63;;;32.08;;
27642;SDS011;15053;48.618;10.024;2024-03-02T07:12:29;175.52;;;30.65;;
27642;SDS011;15053;48.618;10.024;2024-03-02T07:14:56;124.68;;;27.60;;
27642;SDS011;15053;48.618;10.024;2024-03-02T07:17:28;94.65;;;28.20;;
27642;SDS011;15053;48.618;10.024;2024-03-02T07:19:58;95.63;;;26.05;;
27642;SDS011;15053;48.618;10.024;2024-03-02T07:22:25;100.13;;;28.33;;
27642;SDS011;15053;48.618;10.024;2024-03-02T07:24:51;90.93;;;24.65;;
27642;SDS011;15053;48.618;10.024;2024-03-02T07:27:18;74.97;;;25.55;;
27642;SDS011;15053;48.618;10.024;2024-03-02T07:29:44;102.10;;;25.98;;
27642;SDS011;15053;48.618;10.024;2024-03-02T07:32:11;87.35;;;26.33;;
27642;SDS011;15053;48.618;10.024;2024-03-02T07:34:38;51.72;;;22.67;;
27642;SDS011;15053;48.618;10.024;2024-03-02T07:37:04;64.50;;;23.52;;
27642;SDS011;15053;48.618;10.024;2024-03-02T07:39:32;63.70;;;25.33;;
27642;SDS011;15053;48.618;10.024;2024-03-02T07:41:59;47.80;;;23.05;;
27642;SDS011;15053;48.618;10.024;2024-03-02T07:44:26;49.33;;;25.00;;
27642;SDS011;15053;48.618;10.024;2024-03-02T07:46:52;62.88;;;22.83;;
27642;SDS011;15053;48.618;10.024;2024-03-02T07:49:19;40.58;;;21.10;;
27642;SDS011;15053;48.618;10.024;2024-03-02T07:51:45;50.05;;;21.75;;
27642;SDS011;15053;48.618;10.024;2024-03-02T07:54:12;45.80;;;22.60;;
27642;SDS011;15053;48.618;10.024;2024-03-02T07:56:38;47.95;;;22.98;;
27642;SDS011;15053;48.618;10.024;2024-03-02T07:59:05;44.55;;;22.42;;
27642;SDS011;15053;48.618;10.024;2024-03-02T08:01:32;44.25;;;22.73;;
27642;SDS011;15053;48.618;10.024;2024-03-02T08:04:02;43.22;;;22.30;;
27642;SDS011;15053;48.618;10.024;2024-03-02T08:06:31;42.28;;;23.20;;
27642;SDS011;15053;48.618;10.024;2024-03-02T08:08:58;44.65;;;22.65;;
27642;SDS011;15053;48.618;10.024;2024-03-02T08:11:26;38.33;;;21.77;;
27642;SDS011;15053;48.618;10.024;2024-03-02T08:16:23;39.25;;;20.42;;
27642;SDS011;15053;48.618;10.024;2024-03-02T08:18:51;37.33;;;20.17;;
27642;SDS011;15053;48.618;10.024;2024-03-02T08:21:19;39.97;;;20.15;;
27642;SDS011;15053;48.618;10.024;2024-03-02T08:23:46;38.85;;;21.35;;
27642;SDS011;15053;48.618;10.024;2024-03-02T08:26:12;40.40;;;21.15;;
27642;SDS011;15053;48.618;10.024;2024-03-02T08:28:39;41.85;;;21.35;;
27642;SDS011;15053;48.618;10.024;2024-03-02T08:31:08;37.35;;;20.95;;
27642;SDS011;15053;48.618;10.024;2024-03-02T08:33:36;43.80;;;21.63;;
27642;SDS011;15053;48.618;10.024;2024-03-02T08:36:04;33.67;;;19.58;;
27642;SDS011;15053;48.618;10.024;2024-03-02T08:38:31;36.83;;;20.58;;
27642;SDS011;15053;48.618;10.024;2024-03-02T08:40:58;36.38;;;19.35;;
27642;SDS011;15053;48.618;10.024;2024-03-02T08:43:24;39.60;;;24.42;;
27642;SDS011;15053;48.618;10.024;2024-03-02T08:45:51;39.42;;;20.75;;
27642;SDS011;15053;48.618;10.024;2024-03-02T08:48:18;40.97;;;21.92;;
27642;SDS011;15053;48.618;10.024;2024-03-02T08:50:44;40.13;;;21.25;;
27642;SDS011;15053;48.618;10.024;2024-03-02T08:53:11;41.38;;;21.23;;
27642;SDS011;15053;48.618;10.024;2024-03-02T08:55:37;43.67;;;21.52;;
27642;SDS011;15053;48.618;10.024;2024-03-02T08:58:04;38.00;;;21.25;;
27642;SDS011;15053;48.618;10.024;2024-03-02T09:00:31;101.75;;;24.00;;
27642;SDS011;15053;48.618;10.024;2024-03-02T09:02:58;42.65;;;21.60;;
27642;SDS011;15053;48.618;10.024;2024-03-02T09:05:24;47.15;;;19.80;;
27642;SDS011;15053;48.618;10.024;2024-03-02T09:07:51;44.38;;;21.73;;
27642;SDS011;15053;48.618;10.024;2024-03-02T09:10:17;55.33;;;22.25;;
27642;SDS011;15053;48.618;10.024;2024-03-02T09:12:44;40.42;;;20.30;;
27642;SDS011;15053;48.618;10.024;2024-03-02T09:15:10;38.72;;;23.08;;
27642;SDS011;15053;48.618;10.024;2024-03-02T09:17:37;51.33;;;20.45;;
27642;SDS011;15053;48.618;10.024;2024-03-02T09:20:04;33.72;;;19.60;;
27642;SDS011;15053;48.618;10.024;2024-03-02T09:22:31;28.40;;;17.83;;
27642;SDS011;15053;48.618;10.024;2024-03-02T09:24:58;30.02;;;17.08;;
27642;SDS011;15053;48.618;10.024;2024-03-02T09:27:25;30.08;;;16.85;;
27642;SDS011;15053;48.618;10.024;2024-03-02T09:29:51;27.45;;;15.00;;
27642;SDS011;15053;48.618;10.024;2024-03-02T09:32:18;28.50;;;16.83;;
27642;SDS011;15053;48.618;10.024;2024-03-02T09:34:45;27.15;;;16.23;;
27642;SDS011;15053;48.618;10.024;2024-03-02T09:37:11;31.20;;;18.05;;
27642;SDS011;15053;48.618;10.024;2024-03-02T09:39:38;26.98;;;16.92;;
27642;SDS011;15053;48.618;10.024;2024-03-02T09:42:04;31.35;;;18.10;;
27642;SDS011;15053;48.618;10.024;2024-03-02T09:44:31;31.33;;;16.90;;
27642;SDS011;15053;48.618;10.024;2024-03-02T09:46:59;30.17;;;16.98;;
27642;SDS011;15053;48.618;10.024;2024-03-02T09:49:26;27.40;;;16.10;;
27642;SDS011;15053;48.618;10.024;2024-03-02T09:51:53;29.45;;;16.95;;
27642;SDS011;15053;48.618;10.024;2024-03-02T09:54:19;29.25;;;15.50;;
27642;SDS011;15053;48.618;10.024;2024-03-02T09:56:49;26.10;;;14.98;;
27642;SDS011;15053;48.618;10.024;2024-03-02T09:59:17;24.83;;;14.82;;
27642;SDS011;15053;48.618;10.024;2024-03-02T10:02:01;23.77;;;14.00;;
27642;SDS011;15053;48.618;10.024;2024-03-02T10:04:29;20.88;;;13.95;;
27642;SDS011;15053;48.618;10.024;2024-03-02T10:07:13;23.13;;;15.10;;
27642;SDS011;15053;48.618;10.024;2024-03-02T10:09:46;20.08;;;14.45;;
27642;SDS011;15053;48.618;10.024;2024-03-02T10:12:16;26.00;;;15.35;;
27642;SDS011;15053;48.618;10.024;2024-03-02T10:14:43;22.50;;;13.93;;
27642;SDS011;15053;48.618;10.024;2024-03-02T10:17:11;20.70;;;13.20;;
27642;SDS011;15053;48.618;10.024;2024-03-02T10:19:39;24.50;;;14.35;;
27642;SDS011;15053;48.618;10.024;2024-03-02T10:22:07;19.65;;;13.10;;
27642;SDS011;15053;48.618;10.024;2024-03-02T10:24:35;23.30;;;12.85;;
27642;SDS011;15053;48.618;10.024;2024-03-02T10:27:17;20.40;;;12.13;;
27642;SDS011;15053;48.618;10.024;2024-03-02T10:29:49;19.30;;;12.73;;
27642;SDS011;15053;48.618;10.024;2024-03-02T10:32:16;18.77;;;12.52;;
27642;SDS011;15053;48.618;10.024;2024-03-02T10:34:44;21.38;;;12.50;;
27642;SDS011;15053;48.618;10.024;2024-03-02T10:37:12;16.15;;;11.07;;
27642;SDS011;15053;48.618;10.024;2024-03-02T10:39:39;20.10;;;12.32;;
27642;SDS011;15053;48.618;10.024;2024-03-02T10:42:07;16.92;;;11.13;;
27642;SDS011;15053;48.618;10.024;2024-03-02T10:44:34;16.35;;;10.82;;
27642;SDS011;15053;48.618;10.024;2024-03-02T10:47:03;17.65;;;11.05;;
27642;SDS011;15053;48.618;10.024;2024-03-02T10:49:31;20.00;;;11.95;;
27642;SDS011;15053;48.618;10.024;2024-03-02T10:51:59;25.05;;;13.27;;
27642;SDS011;15053;48.618;10.024;2024-03-02T10:54:26;24.10;;;13.80;;
27642;SDS011;15053;48.618;10.024;2024-03-02T10:56:55;23.60;;;13.73;;
27642;SDS011;15053;48.618;10.024;2024-03-02T11:01:53;21.40;;;13.27;;
27642;SDS011;15053;48.618;10.024;2024-03-02T11:04:31;22.17;;;14.07;;
27642;SDS011;15053;48.618;10.024;2024-03-02T11:07:07;19.02;;;13.05;;
27642;SDS011;15053;48.618;10.024;2024-03-02T11:09:49;19.23;;;12.80;;
27642;SDS011;15053;48.618;10.024;2024-03-02T11:12:28;20.00;;;14.63;;
27642;SDS011;15053;48.618;10.024;2024-03-02T11:14:57;22.92;;;15.25;;
27642;SDS011;15053;48.618;10.024;2024-03-02T11:17:24;23.48;;;14.48;;
27642;SDS011;15053;48.618;10.024;2024-03-02T11:19:51;19.85;;;13.00;;
27642;SDS011;15053;48.618;10.024;2024-03-02T11:22:19;16.98;;;10.55;;
27642;SDS011;15053;48.618;10.024;2024-03-02T11:24:49;14.32;;;9.98;;
27642;SDS011;15053;48.618;10.024;2024-03-02T11:30:03;18.70;;;12.85;;
27642;SDS011;15053;48.618;10.024;2024-03-02T11:32:29;20.23;;;11.07;;
27642;SDS011;15053;48.618;10.024;2024-03-02T11:34:56;16.60;;;11.35;;
27642;SDS011;15053;48.618;10.024;2024-03-02T11:37:23;17.15;;;11.00;;
27642;SDS011;15053;48.618;10.024;2024-03-02T11:39:51;15.20;;;9.88;;
27642;SDS011;15053;48.618;10.024;2024-03-02T11:42:18;17.35;;;11.13;;
27642;SDS011;15053;48.618;10.024;2024-03-02T11:44:45;15.90;;;9.73;;
27642;SDS011;15053;48.618;10.024;2024-03-02T11:47:17;13.98;;;9.75;;
27642;SDS011;15053;48.618;10.024;2024-03-02T11:49:48;15.18;;;10.50;;
27642;SDS011;15053;48.618;10.024;2024-03-02T11:54:45;16.65;;;10.82;;
27642;SDS011;15053;48.618;10.024;2024-03-02T11:57:18;9.77;;;7.10;;
27642;SDS011;15053;48.618;10.024;2024-03-02T11:59:47;12.55;;;8.48;;
27642;SDS011;15053;48.618;10.024;2024-03-02T12:02:14;10.88;;;8.55;;
27642;SDS011;15053;48.618;10.024;2024-03-02T12:04:43;11.15;;;8.60;;
27642;SDS011;15053;48.618;10.024;2024-03-02T12:07:11;9.27;;;7.90;;
27642;SDS011;15053;48.618;10.024;2024-03-02T12:09:38;10.70;;;7.75;;
27642;SDS011;15053;48.618;10.024;2024-03-02T12:12:06;9.43;;;8.18;;
27642;SDS011;15053;48.618;10.024;2024-03-02T12:14:33;10.75;;;7.97;;
27642;SDS011;15053;48.618;10.024;2024-03-02T12:17:00;12.57;;;7.93;;
27642;SDS011;15053;48.618;10.024;2024-03-02T12:19:28;11.63;;;8.23;;
27642;SDS011;15053;48.618;10.024;2024-03-02T12:21:56;11.88;;;7.45;;
27642;SDS011;15053;48.618;10.024;2024-03-02T12:24:24;11.35;;;7.13;;
27642;SDS011;15053;48.618;10.024;2024-03-02T12:26:53;10.68;;;7.38;;
27642;SDS011;15053;48.618;10.024;2024-03-02T12:29:20;9.65;;;7.25;;
27642;SDS011;15053;48.618;10.024;2024-03-02T12:31:47;7.93;;;6.68;;
27642;SDS011;15053;48.618;10.024;2024-03-02T12:34:15;10.43;;;6.63;;
27642;SDS011;15053;48.618;10.024;2024-03-02T12:36:43;7.72;;;6.38;;
27642;SDS011;15053;48.618;10.024;2024-03-02T12:39:13;7.55;;;6.35;;
27642;SDS011;15053;48.618;10.024;2024-03-02T12:41:40;10.25;;;5.80;;
27642;SDS011;15053;48.618;10.024;2024-03-02T12:44:07;8.35;;;5.45;;
27642;SDS011;15053;48.618;10.024;2024-03-02T12:46:33;7.38;;;5.30;;
27642;SDS011;15053;48.618;10.024;2024-03-02T12:49:07;7.82;;;5.65;;
27642;SDS011;15053;48.618;10.024;2024-03-02T12:51:36;8.38;;;6.15;;
27642;SDS011;15053;48.618;10.024;2024-03-02T12:54:03;7.13;;;5.70;;
27642;SDS011;15053;48.618;10.024;2024-03-02T12:56:31;8.50;;;6.68;;
27642;SDS011;15053;48.618;10.024;2024-03-02T12:58:58;7.10;;;6.07;;
27642;SDS011;15053;48.618;10.024;2024-03-02T13:01:25;9.50;;;6.75;;
27642;SDS011;15053;48.618;10.024;2024-03-02T13:03:52;8.52;;;6.75;;
27642;SDS011;15053;48.618;10.024;2024-03-02T13:06:21;7.47;;;6.38;;
27642;SDS011;15053;48.618;10.024;2024-03-02T13:08:48;8.60;;;6.00;;
27642;SDS011;15053;48.618;10.024;2024-03-02T13:11:15;9.45;;;7.38;;
27642;SDS011;15053;48.618;10.024;2024-03-02T13:13:43;9.77;;;6.95;;
27642;SDS011;15053;48.618;10.024;2024-03-02T13:16:09;8.85;;;7.68;;
27642;SDS011;15053;48.618;10.024;2024-03-02T13:18:38;9.23;;;7.20;;
27642;SDS011;15053;48.618;10.024;2024-03-02T13:21:05;8.13;;;6.93;;
27642;SDS011;15053;48.618;10.024;2024-03-02T13:23:32;9.25;;;7.00;;
27642;SDS011;15053;48.618;10.024;2024-03-02T13:25:58;9.95;;;7.15;;
27642;SDS011;15053;48.618;10.024;2024-03-02T13:28:25;10.40;;;7.57;;
27642;SDS011;15053;48.618;10.024;2024-03-02T13:30:52;9.48;;;7.53;;
27642;SDS011;15053;48.618;10.024;2024-03-02T13:33:18;9.88;;;7.78;;
27642;SDS011;15053;48.618;10.024;2024-03-02T13:35:49;10.15;;;8.00;;
27642;SDS011;15053;48.618;10.024;2024-03-02T13:38:16;9.15;;;7.72;;
27642;SDS011;15053;48.618;10.024;2024-03-02T13:40:47;11.25;;;7.90;;
27642;SDS011;15053;48.618;10.024;2024-03-02T13:43:18;11.00;;;8.90;;
27642;SDS011;15053;48.618;10.024;2024-03-02T13:45:46;9.15;;;7.85;;
27642;SDS011;15053;48.618;10.024;2024-03-02T13:48:12;8.32;;;6.97;;
27642;SDS011;15053;48.618;10.024;2024-03-02T13:50:41;6.38;;;5.75;;
27642;SDS011;15053;48.618;10.024;2024-03-02T13:53:07;8.43;;;6.40;;
27642;SDS011;15053;48.618;10.024;2024-03-02T13:55:35;8.32;;;6.47;;
27642;SDS011;15053;48.618;10.024;2024-03-02T13:58:01;7.38;;;6.55;;
27642;SDS011;15053;48.618;10.024;2024-03-02T14:00:28;7.43;;;6.45;;
27642;SDS011;15053;48.618;10.024;2024-03-02T14:02:55;7.72;;;5.63;;
27642;SDS011;15053;48.618;10.024;2024-03-02T14:05:22;6.72;;;5.68;;
27642;SDS011;15053;48.618;10.024;2024-03-02T14:07:49;6.95;;;6.25;;
27642;SDS011;15053;48.618;10.024;2024-03-02T14:10:15;7.57;;;6.78;;
27642;SDS011;15053;48.618;10.024;2024-03-02T14:12:42;7.97;;;6.63;;
27642;SDS011;15053;48.618;10.024;2024-03-02T14:15:09;10.00;;;6.97;;
27642;SDS011;15053;48.618;10.024;2024-03-02T14:17:35;7.85;;;6.90;;
27642;SDS011;15053;48.618;10.024;2024-03-02T14:20:02;7.82;;;6.57;;
27642;SDS011;15053;48.618;10.024;2024-03-02T14:22:31;8.93;;;6.93;;
27642;SDS011;15053;48.618;10.024;2024-03-02T14:24:58;7.75;;;6.78;;
27642;SDS011;15053;48.618;10.024;2024-03-02T14:27:24;7.38;;;6.20;;
27642;SDS011;15053;48.618;10.024;2024-03-02T14:30:10;9.77;;;7.32;;